createdAt,value
2019-03-22T00:03:04.577Z,30.88
2019-03-22T00:05:33.272Z,26.62
2019-03-22T00:08:01.863Z,26.17
2019-03-22T00:10:30.508Z,24.20
2019-03-22T00:12:59.164Z,26.95
2019-03-22T00:15:27.806Z,25.90
2019-03-22T00:17:56.405Z,28.25
2019-03-22T00:20:25.036Z,26.68
2019-03-22T00:22:53.716Z,34.27
2019-03-22T00:25:22.367Z,26.40
2019-03-22T00:27:51.006Z,27.60
2019-03-22T00:30:19.590Z,26.00
2019-03-22T00:32:48.153Z,27.77
2019-03-22T00:35:16.843Z,24.18
2019-03-22T00:37:45.495Z,30.55
2019-03-22T00:40:15.730Z,28.70
2019-03-22T00:42:44.293Z,25.90
2019-03-22T00:45:12.995Z,30.37
2019-03-22T00:47:41.661Z,32.30
2019-03-22T00:50:12.103Z,25.08
2019-03-22T00:52:40.775Z,24.32
2019-03-22T00:55:09.502Z,25.32
2019-03-22T00:57:38.160Z,24.72
2019-03-22T01:00:14.132Z,25.70
2019-03-22T01:02:42.802Z,25.97
2019-03-22T01:05:11.446Z,25.45
2019-03-22T01:07:40.038Z,25.27
2019-03-22T01:10:10.788Z,30.92
2019-03-22T01:12:39.271Z,28.60
2019-03-22T01:15:10.025Z,28.17
2019-03-22T01:17:38.679Z,30.97
2019-03-22T01:20:08.949Z,21.68
2019-03-22T01:22:37.517Z,27.60
2019-03-22T01:25:09.917Z,25.27
2019-03-22T01:27:40.637Z,25.68
2019-03-22T01:30:14.646Z,22.95
2019-03-22T01:32:43.213Z,30.32
2019-03-22T01:35:11.919Z,25.92
2019-03-22T01:37:40.630Z,24.35
2019-03-22T01:40:12.764Z,25.32
2019-03-22T01:45:12.088Z,23.18
2019-03-22T01:47:40.643Z,23.20
2019-03-22T01:50:17.106Z,29.70
2019-03-22T01:52:45.764Z,21.27
2019-03-22T01:55:14.323Z,22.40
2019-03-22T01:57:52.395Z,26.25
2019-03-22T02:00:15.223Z,23.38
2019-03-22T02:02:43.776Z,20.00
2019-03-22T02:05:12.398Z,28.32
2019-03-22T02:07:40.951Z,20.27
2019-03-22T02:10:11.225Z,23.87
2019-03-22T02:12:39.811Z,22.48
2019-03-22T02:15:13.218Z,24.02
2019-03-22T02:17:42.172Z,21.85
2019-03-22T02:20:13.058Z,24.52
2019-03-22T02:22:41.616Z,25.32
2019-03-22T02:25:10.189Z,25.27
2019-03-22T02:27:38.888Z,21.33
2019-03-22T02:30:13.295Z,21.95
2019-03-22T02:32:41.982Z,23.22
2019-03-22T02:35:21.419Z,23.57
2019-03-22T02:37:40.956Z,25.55
2019-03-22T02:40:11.091Z,19.17
2019-03-22T02:42:39.623Z,21.55
2019-03-22T02:45:10.619Z,23.52
2019-03-22T02:47:39.227Z,22.60
2019-03-22T02:50:17.742Z,22.58
2019-03-22T02:52:40.360Z,21.45
2019-03-22T02:55:09.944Z,18.85
2019-03-22T02:57:38.502Z,21.40
2019-03-22T03:00:10.477Z,21.35
2019-03-22T03:02:39.108Z,20.32
2019-03-22T03:05:09.254Z,18.52
2019-03-22T03:07:37.870Z,21.95
2019-03-22T03:10:16.928Z,23.27
2019-03-22T03:12:45.595Z,19.57
2019-03-22T03:15:18.258Z,22.67
2019-03-22T03:17:46.936Z,19.15
2019-03-22T03:20:16.785Z,21.68
2019-03-22T03:22:45.465Z,18.37
2019-03-22T03:25:14.210Z,24.10
2019-03-22T03:27:42.884Z,23.22
2019-03-22T03:30:16.690Z,23.67
2019-03-22T03:32:45.344Z,20.85
2019-03-22T03:35:14.006Z,20.02
2019-03-22T03:37:42.568Z,24.10
2019-03-22T03:40:13.044Z,23.25
2019-03-22T03:42:41.626Z,25.57
2019-03-22T03:45:19.160Z,23.00
2019-03-22T03:47:47.774Z,22.07
2019-03-22T03:50:16.421Z,23.25
2019-03-22T03:52:45.091Z,25.37
2019-03-22T03:55:13.592Z,21.30
2019-03-22T03:57:43.060Z,20.75
2019-03-22T04:00:11.700Z,20.95
2019-03-22T04:02:40.234Z,19.92
2019-03-22T04:05:08.857Z,21.52
2019-03-22T04:07:37.475Z,22.10
2019-03-22T04:10:07.690Z,20.43
2019-03-22T04:12:36.255Z,19.75
2019-03-22T04:15:06.489Z,23.20
2019-03-22T04:17:35.134Z,18.20
2019-03-22T04:20:05.215Z,16.37
2019-03-22T04:22:36.350Z,19.92
2019-03-22T04:25:05.920Z,19.92
2019-03-22T04:27:34.460Z,16.05
2019-03-22T04:30:03.083Z,21.42
2019-03-22T04:32:31.684Z,20.70
2019-03-22T04:35:00.414Z,17.85
2019-03-22T04:37:29.431Z,20.50
2019-03-22T04:39:58.094Z,18.90
2019-03-22T04:42:26.707Z,23.75
2019-03-22T04:44:55.347Z,23.55
2019-03-22T04:47:24.031Z,24.37
2019-03-22T04:49:52.513Z,18.23
2019-03-22T04:52:21.211Z,19.20
2019-03-22T04:54:49.882Z,23.42
2019-03-22T04:57:18.448Z,22.62
2019-03-22T04:59:47.107Z,20.55
2019-03-22T05:02:15.797Z,21.42
2019-03-22T05:04:44.360Z,22.75
2019-03-22T05:07:12.921Z,24.43
2019-03-22T05:09:41.584Z,23.95
2019-03-22T05:12:10.640Z,20.55
2019-03-22T05:14:39.237Z,18.48
2019-03-22T05:17:07.828Z,24.98
2019-03-22T05:19:37.289Z,22.17
2019-03-22T05:22:06.071Z,24.02
2019-03-22T05:24:34.566Z,21.93
2019-03-22T05:27:03.244Z,20.62
2019-03-22T05:29:31.950Z,21.35
2019-03-22T05:32:08.168Z,24.87
2019-03-22T05:34:36.782Z,23.45
2019-03-22T05:37:05.410Z,31.02
2019-03-22T05:39:33.974Z,28.87
2019-03-22T05:42:02.676Z,19.17
2019-03-22T05:44:31.303Z,24.52
2019-03-22T05:46:59.951Z,22.65
2019-03-22T05:49:28.630Z,22.80
2019-03-22T05:51:57.205Z,20.80
2019-03-22T05:54:25.899Z,19.10
2019-03-22T05:56:54.469Z,19.87
2019-03-22T05:59:23.152Z,23.67
2019-03-22T06:01:51.802Z,19.20
2019-03-22T06:04:20.475Z,20.50
2019-03-22T06:06:49.045Z,17.65
2019-03-22T06:09:17.721Z,21.23
2019-03-22T06:11:46.397Z,23.38
2019-03-22T06:14:14.967Z,20.37
2019-03-22T06:16:43.660Z,20.32
2019-03-22T06:19:12.316Z,19.25
2019-03-22T06:21:41.005Z,22.45
2019-03-22T06:24:09.629Z,19.60
2019-03-22T06:26:38.307Z,24.52
2019-03-22T06:29:06.866Z,28.62
2019-03-22T06:31:35.478Z,17.55
2019-03-22T06:34:04.131Z,21.42
2019-03-22T06:36:32.818Z,25.17
2019-03-22T06:39:01.555Z,20.88
2019-03-22T06:41:30.140Z,21.48
2019-03-22T06:43:58.807Z,24.67
2019-03-22T06:46:27.371Z,22.80
2019-03-22T06:48:56.035Z,18.12
2019-03-22T06:51:24.610Z,15.05
2019-03-22T06:53:53.286Z,19.80
2019-03-22T06:56:21.947Z,21.97
2019-03-22T06:58:50.609Z,15.40
2019-03-22T07:01:19.267Z,20.97
2019-03-22T07:03:47.953Z,14.78
2019-03-22T07:06:16.522Z,17.32
2019-03-22T07:08:45.210Z,16.32
2019-03-22T07:11:13.897Z,22.20
2019-03-22T07:13:42.462Z,16.62
2019-03-22T07:16:11.134Z,14.10
2019-03-22T07:18:39.776Z,13.20
2019-03-22T07:21:08.371Z,19.87
2019-03-22T07:23:37.014Z,14.63
2019-03-22T07:26:06.094Z,14.35
2019-03-22T07:28:34.600Z,15.95
2019-03-22T07:31:03.278Z,22.37
2019-03-22T07:33:31.838Z,18.98
2019-03-22T07:36:00.394Z,22.93
2019-03-22T07:38:28.890Z,18.45
2019-03-22T07:40:57.582Z,19.55
2019-03-22T07:43:26.067Z,18.60
2019-03-22T07:45:54.718Z,16.27
2019-03-22T07:48:23.263Z,17.12
2019-03-22T07:50:51.909Z,22.65
2019-03-22T07:53:20.533Z,21.77
2019-03-22T07:55:49.188Z,19.55
2019-03-22T07:58:17.739Z,23.00
2019-03-22T08:00:46.373Z,22.95
2019-03-22T08:03:14.972Z,30.55
2019-03-22T08:05:51.051Z,25.50
2019-03-22T08:08:13.830Z,27.90
2019-03-22T08:10:42.497Z,25.48
2019-03-22T08:13:11.136Z,30.05
2019-03-22T08:15:39.819Z,25.25
2019-03-22T08:18:08.467Z,25.32
2019-03-22T08:20:38.756Z,29.25
2019-03-22T08:23:10.423Z,20.35
2019-03-22T08:28:06.869Z,21.70
2019-03-22T08:30:42.899Z,23.35
2019-03-22T08:33:05.814Z,23.20
2019-03-22T08:35:34.493Z,22.22
2019-03-22T08:38:03.040Z,24.10
2019-03-22T08:40:31.674Z,18.67
2019-03-22T08:43:00.273Z,20.32
2019-03-22T08:45:28.863Z,19.17
2019-03-22T08:47:57.485Z,17.12
2019-03-22T08:50:26.033Z,16.85
2019-03-22T08:52:54.591Z,18.73
2019-03-22T08:55:23.188Z,17.82
2019-03-22T08:57:51.816Z,21.25
2019-03-22T09:00:20.395Z,19.40
2019-03-22T09:02:49.837Z,21.05
2019-03-22T09:05:18.743Z,23.15
2019-03-22T09:07:47.427Z,17.55
2019-03-22T09:10:16.094Z,21.02
2019-03-22T09:12:44.778Z,17.82
2019-03-22T09:15:13.437Z,22.93
2019-03-22T09:17:42.207Z,17.77
2019-03-22T09:20:11.221Z,22.93
2019-03-22T09:22:39.879Z,19.37
2019-03-22T09:25:08.510Z,19.60
2019-03-22T09:27:37.195Z,15.98
2019-03-22T09:30:08.655Z,16.62
2019-03-22T09:32:37.217Z,19.07
2019-03-22T09:35:06.618Z,19.98
2019-03-22T09:37:35.245Z,22.90
2019-03-22T09:40:08.312Z,24.57
2019-03-22T09:42:36.396Z,22.02
2019-03-22T09:45:06.774Z,18.57
2019-03-22T09:47:35.620Z,20.02
2019-03-22T09:50:07.131Z,28.73
2019-03-22T09:52:35.709Z,26.40
2019-03-22T09:55:13.311Z,27.13
2019-03-22T09:57:35.181Z,25.02
2019-03-22T10:00:04.854Z,27.15
2019-03-22T10:02:33.512Z,29.70
2019-03-22T10:05:02.161Z,28.02
2019-03-22T10:07:30.908Z,23.57
2019-03-22T10:09:59.493Z,21.07
2019-03-22T10:12:28.166Z,20.97
2019-03-22T10:14:56.813Z,23.05
2019-03-22T10:17:25.500Z,23.30
2019-03-22T10:19:54.045Z,23.50
2019-03-22T10:22:22.730Z,22.90
2019-03-22T10:24:51.378Z,23.60
2019-03-22T10:27:19.992Z,20.72
2019-03-22T10:29:48.655Z,20.35
2019-03-22T10:32:17.315Z,17.12
2019-03-22T10:34:45.990Z,24.95
2019-03-22T10:37:14.619Z,22.62
2019-03-22T10:39:43.307Z,21.85
2019-03-22T10:42:11.978Z,23.47
2019-03-22T10:44:40.644Z,18.75
2019-03-22T10:47:09.293Z,19.15
2019-03-22T10:49:37.912Z,20.25
2019-03-22T10:52:06.557Z,17.70
2019-03-22T10:54:35.238Z,23.35
2019-03-22T10:57:03.919Z,19.02
2019-03-22T10:59:32.503Z,17.45
2019-03-22T11:02:03.601Z,16.80
2019-03-22T11:04:31.388Z,20.80
2019-03-22T11:07:00.094Z,17.50
2019-03-22T11:09:28.755Z,16.95
2019-03-22T11:11:57.443Z,17.27
2019-03-22T11:14:26.079Z,21.73
2019-03-22T11:16:54.694Z,18.45
2019-03-22T11:19:23.266Z,17.65
2019-03-22T11:21:51.775Z,18.40
2019-03-22T11:24:20.436Z,20.72
2019-03-22T11:26:49.098Z,17.35
2019-03-22T11:29:17.764Z,18.02
2019-03-22T11:31:46.417Z,20.77
2019-03-22T11:34:15.097Z,15.05
2019-03-22T11:36:43.734Z,21.77
2019-03-22T11:39:15.813Z,17.32
2019-03-22T11:41:42.734Z,17.57
2019-03-22T11:44:11.316Z,19.42
2019-03-22T11:46:39.998Z,19.30
2019-03-22T11:49:08.645Z,19.70
2019-03-22T11:51:37.325Z,20.68
2019-03-22T11:54:05.889Z,17.95
2019-03-22T11:56:34.509Z,18.42
2019-03-22T11:59:03.091Z,19.30
2019-03-22T12:01:31.767Z,19.00
2019-03-22T12:04:00.360Z,21.25
2019-03-22T12:06:29.021Z,19.57
2019-03-22T12:08:57.615Z,16.17
2019-03-22T12:11:26.248Z,19.98
2019-03-22T12:13:54.937Z,18.98
2019-03-22T12:16:23.494Z,17.20
2019-03-22T12:18:52.179Z,22.73
2019-03-22T12:21:20.756Z,17.87
2019-03-22T12:23:49.354Z,23.75
2019-03-22T12:26:18.002Z,20.88
2019-03-22T12:28:46.606Z,17.98
2019-03-22T12:31:15.256Z,22.87
2019-03-22T12:33:43.941Z,18.57
2019-03-22T12:36:12.617Z,21.48
2019-03-22T12:38:41.198Z,19.52
2019-03-22T12:41:09.824Z,21.42
2019-03-22T12:43:38.399Z,20.55
2019-03-22T12:46:07.082Z,16.77
2019-03-22T12:48:35.664Z,20.45
2019-03-22T12:51:04.337Z,18.95
2019-03-22T12:53:32.976Z,18.48
2019-03-22T12:56:01.593Z,20.62
2019-03-22T12:58:30.233Z,22.93
2019-03-22T13:00:58.904Z,20.72
2019-03-22T13:03:27.594Z,18.48
2019-03-22T13:05:56.190Z,20.40
2019-03-22T13:08:24.841Z,19.92
2019-03-22T13:10:53.407Z,20.77
2019-03-22T13:13:22.099Z,18.77
2019-03-22T13:15:50.680Z,21.05
2019-03-22T13:18:19.276Z,22.10
2019-03-22T13:20:47.935Z,20.27
2019-03-22T13:23:16.619Z,19.60
2019-03-22T13:25:45.177Z,15.50
2019-03-22T13:28:13.868Z,19.45
2019-03-22T13:30:42.535Z,22.22
2019-03-22T13:33:11.184Z,15.90
2019-03-22T13:35:39.791Z,17.98
2019-03-22T13:38:08.307Z,17.82
2019-03-22T13:40:37.259Z,19.82
2019-03-22T13:43:05.909Z,19.57
2019-03-22T13:45:34.582Z,13.68
2019-03-22T13:48:03.221Z,14.98
2019-03-22T13:50:31.901Z,15.63
2019-03-22T13:53:00.535Z,18.00
2019-03-22T13:55:29.227Z,16.80
2019-03-22T13:57:57.861Z,16.60
2019-03-22T14:00:26.537Z,16.90
2019-03-22T14:03:03.106Z,17.75
2019-03-22T14:05:25.502Z,22.05
2019-03-22T14:07:53.933Z,21.27
2019-03-22T14:10:31.030Z,18.07
2019-03-22T14:13:01.199Z,15.95
2019-03-22T14:15:29.859Z,18.75
2019-03-22T14:17:58.939Z,18.87
2019-03-22T14:20:27.571Z,26.02
2019-03-22T14:22:56.260Z,18.30
2019-03-22T14:25:24.895Z,16.05
2019-03-22T14:27:53.988Z,19.00
2019-03-22T14:30:22.569Z,19.45
2019-03-22T14:32:51.190Z,20.05
2019-03-22T14:35:19.819Z,18.82
2019-03-22T14:37:48.497Z,22.87
2019-03-22T14:40:17.103Z,16.15
2019-03-22T14:42:45.735Z,16.42
2019-03-22T14:45:14.364Z,17.40
2019-03-22T14:47:42.997Z,18.50
2019-03-22T14:50:12.180Z,18.85
2019-03-22T14:52:40.763Z,17.17
2019-03-22T14:55:09.430Z,17.10
2019-03-22T14:57:48.390Z,21.27
2019-03-22T15:00:10.828Z,19.30
2019-03-22T15:02:39.508Z,21.30
2019-03-22T15:05:08.143Z,18.60
2019-03-22T15:07:36.795Z,18.52
2019-03-22T15:10:07.876Z,20.37
2019-03-22T15:12:36.542Z,16.15
2019-03-22T15:15:11.541Z,17.02
2019-03-22T15:17:44.618Z,13.75
2019-03-22T15:20:30.057Z,16.77
2019-03-22T15:23:16.408Z,15.65
2019-03-22T15:26:02.752Z,17.50
2019-03-22T15:28:32.970Z,15.30
2019-03-22T15:31:19.355Z,13.78
2019-03-22T15:36:26.501Z,16.50
2019-03-22T15:38:56.824Z,15.50
2019-03-22T15:41:25.612Z,14.68
2019-03-22T15:43:54.313Z,14.55
2019-03-22T15:46:22.958Z,12.23
2019-03-22T15:48:51.515Z,14.47
2019-03-22T15:51:20.096Z,17.70
2019-03-22T15:53:48.705Z,16.27
2019-03-22T15:56:17.345Z,15.70
2019-03-22T15:58:46.018Z,16.77
2019-03-22T16:01:14.672Z,15.85
2019-03-22T16:03:44.475Z,14.13
2019-03-22T16:06:13.324Z,16.15
2019-03-22T16:08:41.864Z,18.40
2019-03-22T16:11:10.460Z,15.53
2019-03-22T16:13:39.164Z,18.23
2019-03-22T16:16:07.821Z,15.65
2019-03-22T16:18:36.428Z,15.85
2019-03-22T16:21:05.030Z,19.92
2019-03-22T16:23:33.615Z,20.10
2019-03-22T16:26:02.304Z,17.90
2019-03-22T16:28:30.947Z,18.00
2019-03-22T16:30:59.578Z,20.25
2019-03-22T16:33:28.214Z,19.45
2019-03-22T16:35:56.832Z,22.32
2019-03-22T16:38:25.519Z,19.67
2019-03-22T16:40:54.163Z,25.75
2019-03-22T16:43:22.846Z,21.33
2019-03-22T16:45:51.518Z,22.75
2019-03-22T16:48:20.109Z,30.15
2019-03-22T16:50:48.766Z,23.10
2019-03-22T16:53:17.442Z,21.77
2019-03-22T16:55:46.013Z,22.37
2019-03-22T16:58:14.695Z,21.52
2019-03-22T17:00:43.262Z,27.90
2019-03-22T17:03:11.948Z,19.20
2019-03-22T17:05:40.527Z,23.47
2019-03-22T17:08:09.116Z,29.15
2019-03-22T17:10:37.712Z,28.90
2019-03-22T17:13:06.398Z,23.32
2019-03-22T17:15:35.053Z,31.45
2019-03-22T17:18:04.070Z,29.18
2019-03-22T17:20:32.917Z,27.20
2019-03-22T17:23:02.774Z,22.80
2019-03-22T17:25:31.611Z,22.75
2019-03-22T17:28:00.463Z,29.42
2019-03-22T17:30:29.356Z,22.37
2019-03-22T17:32:58.184Z,30.65
2019-03-22T17:35:27.055Z,31.50
2019-03-22T17:37:55.918Z,29.18
2019-03-22T17:40:24.755Z,30.05
2019-03-22T17:42:53.583Z,35.50
2019-03-22T17:45:22.463Z,31.23
2019-03-22T17:47:51.283Z,38.85
2019-03-22T17:50:20.249Z,35.03
2019-03-22T17:52:49.031Z,38.53
2019-03-22T17:55:17.865Z,30.02
2019-03-22T17:57:46.812Z,37.60
2019-03-22T18:00:25.676Z,37.13
2019-03-22T18:02:54.641Z,39.50
2019-03-22T18:05:23.442Z,39.78
2019-03-22T18:07:52.312Z,39.03
2019-03-22T18:10:21.127Z,39.15
2019-03-22T18:12:49.925Z,40.03
2019-03-22T18:15:18.736Z,38.13
2019-03-22T18:17:47.602Z,38.85
2019-03-22T18:20:17.033Z,40.17
2019-03-22T18:22:45.897Z,37.83
2019-03-22T18:25:15.786Z,39.70
2019-03-22T18:27:45.012Z,52.75
2019-03-22T18:30:15.336Z,58.05
2019-03-22T18:32:44.244Z,45.60
2019-03-22T18:35:13.153Z,50.95
2019-03-22T18:37:42.168Z,42.55
2019-03-22T18:40:15.109Z,43.60
2019-03-22T18:42:43.645Z,42.78
2019-03-22T18:45:14.809Z,48.05
2019-03-22T18:47:43.893Z,42.90
2019-03-22T18:50:13.757Z,44.23
2019-03-22T18:52:42.560Z,41.80
2019-03-22T18:55:11.615Z,39.45
2019-03-22T18:57:40.445Z,42.33
2019-03-22T19:00:12.338Z,43.00
2019-03-22T19:02:41.092Z,48.70
2019-03-22T19:05:09.959Z,40.55
2019-03-22T19:07:38.796Z,36.73
2019-03-22T19:10:12.428Z,39.58
2019-03-22T19:12:41.263Z,46.68
2019-03-22T19:15:12.233Z,41.37
2019-03-22T19:17:41.067Z,41.90
2019-03-22T19:20:14.550Z,44.10
2019-03-22T19:22:43.406Z,41.05
2019-03-22T19:25:14.390Z,39.23
2019-03-22T19:27:43.131Z,33.53
2019-03-22T19:30:16.962Z,44.98
2019-03-22T19:32:45.832Z,34.23
2019-03-22T19:35:15.857Z,40.95
2019-03-22T19:37:44.705Z,39.58
2019-03-22T19:40:17.199Z,44.08
2019-03-22T19:42:46.078Z,36.15
2019-03-22T19:45:16.849Z,37.90
2019-03-22T19:47:45.960Z,37.25
2019-03-22T19:50:16.282Z,41.05
2019-03-22T19:52:45.155Z,39.55
2019-03-22T19:55:14.045Z,39.45
2019-03-22T19:57:42.896Z,39.48
2019-03-22T20:00:20.053Z,35.88
2019-03-22T20:02:49.349Z,37.80
2019-03-22T20:05:29.507Z,41.10
2019-03-22T20:07:58.381Z,40.38
2019-03-22T20:10:27.193Z,44.00
2019-03-22T20:12:56.167Z,37.75
2019-03-22T20:15:25.039Z,39.65
2019-03-22T20:17:53.795Z,34.92
2019-03-22T20:20:22.650Z,37.10
2019-03-22T20:22:51.471Z,40.75
2019-03-22T20:25:20.328Z,32.15
2019-03-22T20:27:49.204Z,34.03
2019-03-22T20:30:20.171Z,41.75
2019-03-22T20:32:48.987Z,37.35
2019-03-22T20:35:17.804Z,39.55
2019-03-22T20:37:46.603Z,42.58
2019-03-22T20:40:18.232Z,40.35
2019-03-22T20:42:47.177Z,40.98
2019-03-22T20:45:24.072Z,37.88
2019-03-22T20:47:46.601Z,43.17
2019-03-22T20:50:15.604Z,49.63
2019-03-22T20:52:44.466Z,39.85
2019-03-22T20:55:13.440Z,48.33
2019-03-22T20:57:42.301Z,42.15
2019-03-22T21:00:16.059Z,43.95
2019-03-22T21:02:44.894Z,48.17
2019-03-22T21:05:13.851Z,39.45
2019-03-22T21:07:42.682Z,44.33
2019-03-22T21:10:12.691Z,37.30
2019-03-22T21:12:41.521Z,48.10
2019-03-22T21:15:12.145Z,46.60
2019-03-22T21:17:40.982Z,46.90
2019-03-22T21:20:11.345Z,48.05
2019-03-22T21:22:40.169Z,47.60
2019-03-22T21:25:10.546Z,52.90
2019-03-22T21:27:40.051Z,40.10
2019-03-22T21:30:14.396Z,42.23
2019-03-22T21:32:45.479Z,46.55
2019-03-22T21:35:21.997Z,46.28
2019-03-22T21:37:44.201Z,42.00
2019-03-22T21:40:13.044Z,45.85
2019-03-22T21:42:41.861Z,48.15
2019-03-22T21:45:11.488Z,48.90
2019-03-22T21:47:40.303Z,48.17
2019-03-22T21:50:10.414Z,54.42
2019-03-22T21:52:39.193Z,48.00
2019-03-22T21:55:10.973Z,50.10
2019-03-22T21:57:39.815Z,52.23
2019-03-22T22:00:11.227Z,52.03
2019-03-22T22:02:40.059Z,47.60
2019-03-22T22:05:09.885Z,42.00
2019-03-22T22:07:38.790Z,43.83
2019-03-22T22:10:08.259Z,44.93
2019-03-22T22:12:37.119Z,47.35
2019-03-22T22:15:09.435Z,42.10
2019-03-22T22:17:39.446Z,43.78
2019-03-22T22:20:08.370Z,38.05
2019-03-22T22:22:37.216Z,41.58
2019-03-22T22:25:07.563Z,40.90
2019-03-22T22:27:36.425Z,41.13
2019-03-22T22:30:12.587Z,36.20
2019-03-22T22:32:41.451Z,39.88
2019-03-22T22:35:10.287Z,37.93
2019-03-22T22:37:39.127Z,36.75
2019-03-22T22:40:09.785Z,39.03
2019-03-22T22:42:38.656Z,41.73
2019-03-22T22:45:08.773Z,41.10
2019-03-22T22:47:37.597Z,38.45
2019-03-22T22:50:08.273Z,42.50
2019-03-22T22:52:37.103Z,35.83
2019-03-22T22:55:06.165Z,37.35
2019-03-22T22:57:34.980Z,36.38
2019-03-22T23:00:08.692Z,36.17
2019-03-22T23:02:37.527Z,34.23
2019-03-22T23:05:06.979Z,36.23
2019-03-22T23:07:35.852Z,35.78
2019-03-22T23:10:06.578Z,38.28
2019-03-22T23:12:35.940Z,41.48
2019-03-22T23:15:09.241Z,33.90
2019-03-22T23:17:38.140Z,38.65
2019-03-22T23:20:08.759Z,34.92
2019-03-22T23:22:37.626Z,36.20
2019-03-22T23:25:07.166Z,37.30
2019-03-22T23:27:36.945Z,37.53
2019-03-22T23:30:07.780Z,34.75
2019-03-22T23:32:36.637Z,33.20
2019-03-22T23:35:06.951Z,34.00
2019-03-22T23:37:35.809Z,32.10
2019-03-22T23:40:06.559Z,42.98
2019-03-22T23:42:35.415Z,29.70
2019-03-22T23:45:06.637Z,35.00
2019-03-22T23:47:35.502Z,36.40
2019-03-22T23:50:07.063Z,37.48
2019-03-22T23:52:35.991Z,38.88
2019-03-22T23:55:06.336Z,35.88
2019-03-22T23:57:35.154Z,36.88
